Terminal Aerodrome Forecast
Issued by NWS Charleston, WV

Home | Current Version | Previous Version | Text Only | Print | Product List | Glossary On
Versions: 1 2 3 4 5 6 7 8 9 10 11 12 13 14 15 16 17 18 19 20 21 22 23 24 25 26 27 28 29 30 31 32 33 34 35 36 37 38 39 40 41 42 43 44 45
000
FTUS41 KRLX 182332
TAFHTS
TAF
KHTS 182332Z 1900/1924 19007KT P6SM SCT200
     FM190700 16008KT P6SM OVC100 WS005/17020KT
     FM191100 17009G19KT P6SM -SHRA OVC060
     FM191800 22007KT P6SM -SHRA OVC030=

USA.gov is the U.S. government's official web portal to all federal, state and local government web resources and services.